createdAt,value
2022-12-25T00:03:53.874Z,7.45
2022-12-25T00:08:55.406Z,7.88
2022-12-25T00:13:56.838Z,7.78
2022-12-25T00:18:59.097Z,7.47
2022-12-25T00:24:01.535Z,7.80
2022-12-25T00:29:03.106Z,7.90
2022-12-25T00:34:04.569Z,7.10
2022-12-25T00:39:07.262Z,7.55
2022-12-25T00:44:11.077Z,7.68
2022-12-25T00:49:12.569Z,6.75
2022-12-25T00:54:13.986Z,5.95
2022-12-25T00:59:15.471Z,6.00
2022-12-25T01:04:16.941Z,6.60
2022-12-25T01:09:36.757Z,6.15
2022-12-25T01:14:38.181Z,6.40
2022-12-25T01:19:39.717Z,6.65
2022-12-25T01:24:41.130Z,9.25
2022-12-25T01:29:42.626Z,7.15
2022-12-25T01:34:44.119Z,6.32
2022-12-25T01:39:45.555Z,6.65
2022-12-25T01:44:46.906Z,6.25
2022-12-25T01:49:50.781Z,5.80
2022-12-25T01:55:04.071Z,5.22
2022-12-25T02:00:07.468Z,5.70
2022-12-25T02:05:21.031Z,5.97
2022-12-25T02:10:22.780Z,5.38
2022-12-25T02:15:33.274Z,6.55
2022-12-25T02:20:51.854Z,6.35
2022-12-25T02:26:31.035Z,6.13
2022-12-25T02:31:40.969Z,5.85
2022-12-25T02:37:17.421Z,5.72
2022-12-25T02:43:06.413Z,6.15
2022-12-25T02:48:27.887Z,6.07
2022-12-25T02:53:48.490Z,6.40
2022-12-25T02:59:08.551Z,6.43
2022-12-25T03:04:34.210Z,6.10
2022-12-25T03:09:59.511Z,6.10
2022-12-25T03:15:20.244Z,6.07
2022-12-25T03:20:40.412Z,5.93
2022-12-25T03:26:00.411Z,5.60
2022-12-25T03:31:17.231Z,6.05
2022-12-25T03:36:34.139Z,5.80
2022-12-25T03:41:55.479Z,5.10
2022-12-25T03:47:44.648Z,5.47
2022-12-25T03:53:06.611Z,5.18
2022-12-25T03:58:36.667Z,5.78
2022-12-25T04:03:56.884Z,5.80
2022-12-25T04:09:16.950Z,6.82
2022-12-25T04:14:36.982Z,7.38
2022-12-25T04:19:56.910Z,7.20
2022-12-25T04:25:16.969Z,7.40
2022-12-25T04:30:37.033Z,7.18
2022-12-25T04:35:57.226Z,6.65
2022-12-25T04:41:00.814Z,6.97
2022-12-25T04:46:04.180Z,6.97
2022-12-25T04:51:17.787Z,7.05
2022-12-25T04:56:19.809Z,6.50
2022-12-25T05:01:21.393Z,6.63
2022-12-25T05:06:23.167Z,6.25
2022-12-25T05:11:24.637Z,5.93
2022-12-25T05:16:26.460Z,5.93
2022-12-25T05:21:27.964Z,7.05
2022-12-25T05:26:29.430Z,6.60
2022-12-25T05:31:31.003Z,5.93
2022-12-25T05:36:32.503Z,6.85
2022-12-25T05:41:34.778Z,6.30
2022-12-25T05:46:36.559Z,6.50
2022-12-25T05:51:38.063Z,6.32
2022-12-25T05:56:39.485Z,6.25
2022-12-25T06:01:41.111Z,6.50
2022-12-25T06:06:42.656Z,5.80
2022-12-25T06:11:44.226Z,5.53
2022-12-25T06:16:45.765Z,6.70
2022-12-25T06:21:47.864Z,6.07
2022-12-25T06:26:49.619Z,9.25
2022-12-25T06:31:54.894Z,10.32
2022-12-25T06:36:56.354Z,9.25
2022-12-25T06:41:57.937Z,10.00
2022-12-25T06:46:59.657Z,15.43
2022-12-25T06:52:01.139Z,11.50
2022-12-25T06:57:02.634Z,9.57
2022-12-25T07:02:04.299Z,14.02
2022-12-25T07:07:09.274Z,9.23
2022-12-25T07:12:13.504Z,10.52
2022-12-25T07:17:16.739Z,10.32
2022-12-25T07:22:18.304Z,9.90
2022-12-25T07:27:19.845Z,10.20
2022-12-25T07:32:21.255Z,10.40
2022-12-25T07:37:22.850Z,9.80
2022-12-25T07:42:25.434Z,10.75
2022-12-25T07:47:27.182Z,9.75
2022-12-25T07:52:28.593Z,8.73
2022-12-25T07:57:30.183Z,10.30
2022-12-25T08:02:31.780Z,10.43
2022-12-25T08:07:33.616Z,9.57
2022-12-25T08:12:35.052Z,9.75
2022-12-25T08:17:36.511Z,9.57
2022-12-25T08:22:37.936Z,10.63
2022-12-25T08:27:39.355Z,10.70
2022-12-25T08:32:41.424Z,13.45
2022-12-25T08:37:43.000Z,12.18
2022-12-25T08:42:44.423Z,9.77
2022-12-25T08:47:45.849Z,9.45
2022-12-25T08:52:47.299Z,8.70
2022-12-25T08:57:48.706Z,9.90
2022-12-25T09:02:50.324Z,9.60
2022-12-25T09:07:51.861Z,9.95
2022-12-25T09:12:53.280Z,9.27
2022-12-25T09:17:54.755Z,9.65
2022-12-25T09:22:56.223Z,10.05
2022-12-25T09:27:57.677Z,9.02
2022-12-25T09:32:59.261Z,9.45
2022-12-25T09:38:00.795Z,8.50
2022-12-25T09:43:03.990Z,8.32
2022-12-25T09:48:05.805Z,8.63
2022-12-25T09:53:22.109Z,10.68
2022-12-25T09:58:23.628Z,8.70
2022-12-25T10:03:31.237Z,10.23
2022-12-25T10:08:48.013Z,10.15
2022-12-25T10:13:56.667Z,9.45
2022-12-25T10:19:04.590Z,9.30
2022-12-25T10:24:43.457Z,8.00
2022-12-25T10:29:47.567Z,8.07
2022-12-25T10:34:49.686Z,7.03
2022-12-25T10:39:51.145Z,7.05
2022-12-25T10:45:04.679Z,8.43
2022-12-25T10:50:24.509Z,6.88
2022-12-25T10:55:29.272Z,6.57
2022-12-25T11:00:32.770Z,7.40
2022-12-25T11:05:36.965Z,7.50
2022-12-25T11:10:44.375Z,6.75
2022-12-25T11:15:49.465Z,6.65
2022-12-25T11:21:03.349Z,7.05
2022-12-25T11:26:07.650Z,6.43
2022-12-25T11:31:33.467Z,7.72
2022-12-25T11:36:50.108Z,6.82
2022-12-25T11:41:56.884Z,5.63
2022-12-25T11:47:08.516Z,6.38
2022-12-25T11:52:13.561Z,6.45
2022-12-25T11:57:15.154Z,7.38
2022-12-25T12:02:38.978Z,7.15
2022-12-25T12:08:00.929Z,6.25
2022-12-25T12:13:20.295Z,7.65
2022-12-25T12:18:27.541Z,6.22
2022-12-25T12:23:31.923Z,6.63
2022-12-25T12:28:44.837Z,7.00
2022-12-25T12:33:53.572Z,6.65
2022-12-25T12:38:57.889Z,7.00
2022-12-25T12:44:03.086Z,6.88
2022-12-25T12:49:21.716Z,6.65
2022-12-25T12:54:25.780Z,5.90
2022-12-25T12:59:46.876Z,6.13
2022-12-25T13:04:52.810Z,6.22
2022-12-25T13:10:12.834Z,6.20
2022-12-25T13:15:14.789Z,7.55
2022-12-25T13:20:24.117Z,6.85
2022-12-25T13:25:25.614Z,6.03
2022-12-25T13:30:27.257Z,6.65
2022-12-25T13:35:29.595Z,6.32
2022-12-25T13:40:31.144Z,6.53
2022-12-25T13:45:34.478Z,6.45
2022-12-25T13:50:36.435Z,7.63
2022-12-25T13:55:38.417Z,8.45
2022-12-25T14:00:48.741Z,10.63
2022-12-25T14:06:01.778Z,9.13
2022-12-25T14:11:05.839Z,9.50
2022-12-25T14:16:08.428Z,9.40
2022-12-25T14:21:16.109Z,10.25
2022-12-25T14:26:20.070Z,9.23
2022-12-25T14:31:23.664Z,9.35
2022-12-25T14:36:26.054Z,10.63
2022-12-25T14:41:41.147Z,9.05
2022-12-25T14:46:42.861Z,10.00
2022-12-25T14:51:44.340Z,9.02
2022-12-25T14:56:51.229Z,10.23
2022-12-25T15:02:01.236Z,9.20
2022-12-25T15:07:09.573Z,9.40
2022-12-25T15:12:11.750Z,10.32
2022-12-25T15:17:24.901Z,10.80
2022-12-25T15:22:26.389Z,10.13
2022-12-25T15:27:27.839Z,11.82
2022-12-25T15:32:29.315Z,12.75
2022-12-25T15:37:30.752Z,12.35
2022-12-25T15:42:32.165Z,12.95
2022-12-25T15:47:34.769Z,13.10
2022-12-25T15:52:36.197Z,13.93
2022-12-25T15:57:41.024Z,15.38
2022-12-25T16:02:42.547Z,16.15
2022-12-25T16:07:46.071Z,16.70
2022-12-25T16:12:47.664Z,18.45
2022-12-25T16:17:49.130Z,18.92
2022-12-25T16:22:50.581Z,21.13
2022-12-25T16:27:52.027Z,19.75
2022-12-25T16:32:54.040Z,20.98
2022-12-25T16:37:55.455Z,22.23
2022-12-25T16:42:57.097Z,19.73
2022-12-25T16:47:58.506Z,17.25
2022-12-25T16:52:59.948Z,16.40
2022-12-25T16:58:01.386Z,17.55
2022-12-25T17:03:02.955Z,16.05
2022-12-25T17:08:04.829Z,17.05
2022-12-25T17:13:06.335Z,17.45
2022-12-25T17:18:07.745Z,16.95
2022-12-25T17:23:09.206Z,17.08
2022-12-25T17:28:10.645Z,17.23
2022-12-25T17:33:12.188Z,19.65
2022-12-25T17:38:13.668Z,18.25
2022-12-25T17:43:20.554Z,18.77
2022-12-25T17:48:22.839Z,19.10
2022-12-25T17:53:24.267Z,16.92
2022-12-25T17:58:26.949Z,17.55
2022-12-25T18:03:28.493Z,18.15
2022-12-25T18:08:35.333Z,17.75
2022-12-25T18:13:42.092Z,18.33
2022-12-25T18:18:51.144Z,18.63
2022-12-25T18:23:53.662Z,19.13
2022-12-25T18:28:55.670Z,18.73
2022-12-25T18:33:58.897Z,19.98
2022-12-25T18:39:00.358Z,20.90
2022-12-25T18:44:01.826Z,21.67
2022-12-25T18:49:03.229Z,20.13
2022-12-25T18:54:04.687Z,19.05
2022-12-25T18:59:06.147Z,19.00
2022-12-25T19:04:12.481Z,19.55
2022-12-25T19:09:13.929Z,19.02
2022-12-25T19:14:15.715Z,19.52
2022-12-25T19:19:17.903Z,18.25
2022-12-25T19:24:20.270Z,18.00
2022-12-25T19:29:21.685Z,18.77
2022-12-25T19:34:23.394Z,18.60
2022-12-25T19:39:24.816Z,19.23
2022-12-25T19:44:26.465Z,18.88
2022-12-25T19:49:27.912Z,19.08
2022-12-25T19:54:29.522Z,17.55
2022-12-25T19:59:31.003Z,18.00
2022-12-25T20:04:32.441Z,18.55
2022-12-25T20:09:33.837Z,18.42
2022-12-25T20:14:35.280Z,17.52
2022-12-25T20:19:36.699Z,17.23
2022-12-25T20:24:38.204Z,16.17
2022-12-25T20:29:39.652Z,16.30
2022-12-25T20:34:41.188Z,18.23
2022-12-25T20:39:42.650Z,15.45
2022-12-25T20:44:44.122Z,16.23
2022-12-25T20:49:47.350Z,14.93
2022-12-25T20:54:49.227Z,13.90
2022-12-25T20:59:50.902Z,12.82
2022-12-25T21:04:54.249Z,13.20
2022-12-25T21:09:56.002Z,15.55
2022-12-25T21:14:57.457Z,13.07
2022-12-25T21:19:58.987Z,12.90
2022-12-25T21:25:00.521Z,13.05
2022-12-25T21:30:14.492Z,11.13
2022-12-25T21:35:17.388Z,11.25
2022-12-25T21:40:18.826Z,11.20
2022-12-25T21:45:20.234Z,10.95
2022-12-25T21:50:40.094Z,10.90
2022-12-25T21:55:41.536Z,8.88
2022-12-25T22:00:42.945Z,10.25
2022-12-25T22:06:03.030Z,11.48
2022-12-25T22:11:04.969Z,10.93
2022-12-25T22:16:25.364Z,10.23
2022-12-25T22:21:26.802Z,10.98
2022-12-25T22:26:28.217Z,11.55
2022-12-25T22:31:29.790Z,11.57
2022-12-25T22:36:31.319Z,11.30
2022-12-25T22:41:33.860Z,12.02
2022-12-25T22:46:35.858Z,12.52
2022-12-25T22:51:37.340Z,12.43
2022-12-25T22:56:39.983Z,12.90
2022-12-25T23:01:41.966Z,12.35
2022-12-25T23:06:44.217Z,11.93
2022-12-25T23:11:45.845Z,12.52
2022-12-25T23:16:47.261Z,13.18
2022-12-25T23:22:07.693Z,12.25
2022-12-25T23:27:09.543Z,13.05
2022-12-25T23:32:14.197Z,14.30
2022-12-25T23:37:15.680Z,11.73
2022-12-25T23:42:17.575Z,11.85
2022-12-25T23:47:18.999Z,11.85
2022-12-25T23:52:20.401Z,11.98
2022-12-25T23:57:21.874Z,11.25
